Terminal Aerodrome Forecast
Issued by NWS

Home | Current Version | Previous Version | Text Only | Print | Product List | Glossary On
Versions: 1 2 3 4 5 6 7 8 9 10 11 12 13 14 15 16 17 18 19 20 21 22 23 24
000
FTUS46 KLOX 281700
TAFLAX
TAF
KLAX 281722Z 2818/2924 VRB03KT P6SM SCT250
     FM282000 25007KT P6SM SKC
     FM290300 VRB03KT P6SM SCT250
     FM291100 VRB03KT 4SM BR OVC007
     FM291600 VRB03KT P6SM BKN012
     FM291900 24007KT P6SM SCT025=

USA.gov is the U.S. government's official web portal to all federal, state and local government web resources and services.